TimeEDT,TemperatureF,Dew PointF,Humidity,Sea Level PressureIn,VisibilityMPH,Wind Direction,Wind SpeedMPH,Gust SpeedMPH,PrecipitationIn,Events,Conditions,WindDirDegrees,DateUTC
12:53 AM,73.0,70.0,90,30.12,8.0,Calm,Calm,-,N/A,,Clear,0,2013-09-16 04:53:00
1:53 AM,72.0,70.0,93,30.12,6.0,Calm,Calm,-,N/A,,Clear,0,2013-09-16 05:53:00
2:53 AM,72.0,70.0,93,30.12,4.0,Calm,Calm,-,N/A,,Clear,0,2013-09-16 06:53:00
3:10 AM,71.6,69.8,94,30.12,1.8,Calm,Calm,-,N/A,,Partly Cloudy,0,2013-09-16 07:10:00
3:19 AM,71.6,69.8,94,30.12,1.2,Calm,Calm,-,N/A,,Partly Cloudy,0,2013-09-16 07:19:00
3:26 AM,71.6,69.8,94,30.11,2.0,Calm,Calm,-,N/A,,Partly Cloudy,0,2013-09-16 07:26:00
3:34 AM,71.6,69.8,94,30.11,4.0,Calm,Calm,-,N/A,,Partly Cloudy,0,2013-09-16 07:34:00
3:53 AM,72.0,70.0,93,30.11,4.0,Calm,Calm,-,N/A,,Scattered Clouds,0,2013-09-16 07:53:00
4:40 AM,71.6,69.8,94,30.10,5.0,Calm,Calm,-,N/A,,Scattered Clouds,0,2013-09-16 08:40:00
4:48 AM,71.6,69.8,94,30.10,6.0,Calm,Calm,-,N/A,,Mostly Cloudy,0,2013-09-16 08:48:00
4:53 AM,71.1,69.1,93,30.10,5.0,Calm,Calm,-,N/A,,Mostly Cloudy,0,2013-09-16 08:53:00
5:53 AM,73.0,70.0,90,30.11,6.0,Calm,Calm,-,N/A,,Overcast,0,2013-09-16 09:53:00
6:31 AM,73.4,71.6,94,30.12,5.0,NNE,4.6,-,N/A,,Overcast,30,2013-09-16 10:31:00
6:53 AM,73.0,71.1,93,30.12,5.0,Calm,Calm,-,N/A,,Overcast,0,2013-09-16 10:53:00
7:53 AM,73.9,71.1,91,30.13,5.0,Calm,Calm,-,N/A,,Overcast,0,2013-09-16 11:53:00
8:35 AM,75.2,71.6,89,30.13,6.0,ESE,3.5,-,N/A,,Overcast,110,2013-09-16 12:35:00
8:53 AM,75.0,72.0,90,30.13,5.0,Calm,Calm,-,N/A,,Overcast,0,2013-09-16 12:53:00
9:41 AM,75.2,71.6,89,30.14,5.0,Calm,Calm,-,0.00,Rain,Light Rain,0,2013-09-16 13:41:00
9:53 AM,75.9,72.0,87,30.13,5.0,East,3.5,-,0.00,,Overcast,100,2013-09-16 13:53:00
10:53 AM,80.1,72.0,76,30.14,-9999.0,North,-9999.0,-,N/A,,Unknown,0,2013-09-16 14:53:00
11:53 AM,84.9,70.0,61,30.12,-9999.0,North,-9999.0,-,N/A,,Partly Cloudy,0,2013-09-16 15:53:00
12:53 PM,86.0,70.0,59,30.10,10.0,Variable,3.5,-,N/A,,Mostly Cloudy,0,2013-09-16 16:53:00
1:53 PM,84.9,69.1,59,30.07,10.0,SE,3.5,-,N/A,,Overcast,130,2013-09-16 17:53:00
2:19 PM,75.2,69.8,83,30.10,1.8,NW,10.4,26.5,0.09,Rain,Heavy Rain,320,2013-09-16 18:19:00
2:22 PM,73.4,69.8,88,30.10,1.0,North,10.4,21.9,0.19,Rain,Heavy Rain,360,2013-09-16 18:22:00
2:25 PM,73.4,69.8,88,30.11,0.5,North,9.2,17.3,0.30,Fog-Rain,Heavy Rain,350,2013-09-16 18:25:00
2:35 PM,71.6,69.8,94,30.09,0.5,NE,9.2,16.1,0.52,Fog-Rain,Heavy Rain,50,2013-09-16 18:35:00
2:42 PM,71.6,69.8,94,30.09,1.8,ESE,6.9,-,0.52,Rain,Light Rain,110,2013-09-16 18:42:00
2:44 PM,73.4,69.8,88,30.08,4.0,ESE,9.2,-,0.53,Rain,Light Rain,110,2013-09-16 18:44:00
2:53 PM,75.0,71.1,87,30.07,10.0,East,5.8,-,0.53,Rain,Light Rain,90,2013-09-16 18:53:00
3:53 PM,82.9,71.1,67,30.05,10.0,SE,3.5,-,0.00,,Clear,140,2013-09-16 19:53:00
4:53 PM,82.9,72.0,69,30.04,10.0,SSE,6.9,-,N/A,,Clear,160,2013-09-16 20:53:00
5:53 PM,82.9,71.1,67,30.04,10.0,SSE,4.6,-,N/A,,Clear,150,2013-09-16 21:53:00
6:53 PM,80.1,72.0,76,30.05,10.0,SE,3.5,-,N/A,,Clear,130,2013-09-16 22:53:00
7:53 PM,77.0,72.0,84,30.06,10.0,Calm,Calm,-,N/A,,Clear,0,2013-09-16 23:53:00
8:53 PM,75.9,72.0,87,30.09,10.0,SSE,3.5,-,N/A,,Partly Cloudy,150,2013-09-17 00:53:00
9:53 PM,75.0,72.0,90,30.09,8.0,Calm,Calm,-,N/A,,Clear,0,2013-09-17 01:53:00
10:53 PM,73.9,71.1,91,30.09,7.0,Calm,Calm,-,N/A,,Clear,0,2013-09-17 02:53:00
11:53 PM,73.9,71.1,91,30.10,6.0,Calm,Calm,-,N/A,,Partly Cloudy,0,2013-09-17 03:53:00